Time;durP1;ratioP1;P1;durP2;ratioP2;P2;SDS_P1;SDS_P2;PMS_P1;PMS_P2;Temp;Humidity;BMP_temperature;BMP_pressure;BME280_temperature;BME280_humidity;BME280_pressure;Samples;Min_cycle;Max_cycle;Signal;HPM_P1;HPM_P2
2022/06/18 00:00:27;;;;;;;11.67;11.10;;;19.50;10.90;;;;;;4973957;28;20456;-71
2022/06/18 00:02:53;;;;;;;11.23;10.63;;;19.30;11.60;;;;;;4972799;28;20592;-70
2022/06/18 00:05:20;;;;;;;10.87;10.33;;;19.30;11.60;;;;;;4973467;28;20499;-71
2022/06/18 00:07:50;;;;;;;9.77;9.13;;;19.00;12.20;;;;;;4969331;28;20823;-71
2022/06/18 00:10:19;;;;;;;10.90;10.13;;;18.80;13.30;;;;;;4969040;28;20825;-72
2022/06/18 00:15:33;;;;;;;10.13;9.63;;;18.90;13.10;;;;;;4970660;28;20638;-71
2022/06/18 00:17:59;;;;;;;10.80;10.00;;;18.70;13.80;;;;;;4970264;28;20950;-71
2022/06/18 00:20:28;;;;;;;9.70;9.20;;;18.50;14.30;;;;;;4970549;28;20420;-71
2022/06/18 00:22:57;;;;;;;9.53;8.93;;;18.40;14.70;;;;;;4970904;28;20705;-72
2022/06/18 00:25:33;;;;;;;9.83;9.07;;;18.60;14.40;;;;;;4970969;28;20421;-71
2022/06/18 00:27:59;;;;;;;9.00;8.60;;;18.60;14.60;;;;;;4970824;28;20462;-72
2022/06/18 00:30:27;;;;;;;9.70;9.20;;;18.50;14.80;;;;;;4969549;28;20415;-72
2022/06/18 00:32:53;;;;;;;9.60;9.10;;;18.50;14.80;;;;;;4970846;28;20451;-71
2022/06/18 00:35:19;;;;;;;9.40;8.77;;;18.50;14.80;;;;;;4971605;28;20425;-71
2022/06/18 00:37:46;;;;;;;9.30;8.80;;;18.60;14.60;;;;;;4971193;28;20555;-72
2022/06/18 00:40:32;;;;;;;9.20;8.70;;;18.50;15.10;;;;;;4969305;28;20190;-71
2022/06/18 00:43:02;;;;;;;10.07;9.50;;;18.60;14.70;;;;;;4971276;28;20467;-71
2022/06/18 00:45:29;;;;;;;10.07;9.60;;;18.70;14.50;;;;;;4971984;28;20435;-71
2022/06/18 00:48:07;;;;;;;9.87;9.30;;;18.70;14.60;;;;;;4971307;28;20448;-69
2022/06/18 00:50:44;;;;;;;9.77;9.37;;;18.80;13.70;;;;;;4972017;28;20414;-71
2022/06/18 00:53:17;;;;;;;9.47;9.07;;;18.80;13.50;;;;;;4972041;28;20424;-71
2022/06/18 00:55:53;;;;;;;9.70;9.30;;;18.70;13.30;;;;;;4971313;28;20425;-71
2022/06/18 00:58:26;;;;;;;9.87;9.37;;;18.60;13.20;;;;;;4970168;28;20927;-71
2022/06/18 01:00:55;;;;;;;9.20;8.80;;;18.60;13.60;;;;;;4970110;28;20888;-71
2022/06/18 01:03:32;;;;;;;9.90;9.30;;;18.60;13.10;;;;;;4973072;28;20537;-72
2022/06/18 01:06:02;;;;;;;9.20;8.70;;;18.50;13.10;;;;;;4973932;28;20510;-71
2022/06/18 01:08:32;;;;;;;9.10;8.60;;;18.40;13.60;;;;;;4973595;28;20451;-71
2022/06/18 01:11:01;;;;;;;8.80;8.40;;;18.40;13.70;;;;;;4973786;28;20427;-71
2022/06/18 01:13:40;;;;;;;9.10;8.70;;;18.40;13.60;;;;;;4972932;28;20421;-71
2022/06/18 01:16:07;;;;;;;9.33;8.83;;;18.40;13.50;;;;;;4974460;28;20416;-72
2022/06/18 01:18:34;;;;;;;10.07;9.57;;;18.40;13.60;;;;;;4973076;28;20997;-71
2022/06/18 01:21:27;;;;;;;9.63;9.23;;;18.40;13.20;;;;;;4973473;28;20793;-71
2022/06/18 01:24:03;;;;;;;9.90;9.30;;;18.50;13.00;;;;;;4974599;28;20993;-71
2022/06/18 01:26:28;;;;;;;9.10;8.70;;;18.40;13.30;;;;;;4974297;28;20405;-71
2022/06/18 01:28:54;;;;;;;9.47;9.00;;;18.40;13.60;;;;;;4973670;28;20448;-70
2022/06/18 01:31:20;;;;;;;8.83;8.43;;;18.40;13.50;;;;;;4973486;28;20189;-71
2022/06/18 01:33:46;;;;;;;9.70;9.30;;;18.40;13.40;;;;;;4973502;28;20608;-71
2022/06/18 01:36:13;;;;;;;10.10;9.67;;;18.30;13.70;;;;;;4973497;28;20690;-71
2022/06/18 01:38:44;;;;;;;9.53;8.93;;;18.30;13.90;;;;;;4973076;28;20471;-70
2022/06/18 01:44:14;;;;;;;9.43;9.00;;;18.30;14.00;;;;;;4974303;28;20463;-70
2022/06/18 01:46:44;;;;;;;10.07;9.57;;;18.20;14.10;;;;;;4974354;28;21053;-71
2022/06/18 01:49:13;;;;;;;9.50;8.90;;;18.20;14.00;;;;;;4974394;28;20474;-71
2022/06/18 01:51:41;;;;;;;9.90;9.30;;;18.20;14.10;;;;;;4974415;28;20503;-70
2022/06/18 01:54:19;;;;;;;9.77;9.27;;;18.10;14.00;;;;;;4974357;28;20420;-70
2022/06/18 01:56:50;;;;;;;9.40;9.00;;;18.20;13.80;;;;;;4973334;28;20447;-71
2022/06/18 01:59:24;;;;;;;8.93;8.43;;;18.20;13.80;;;;;;4973228;28;20483;-71
2022/06/18 02:01:51;;;;;;;9.50;9.10;;;18.20;13.90;;;;;;4973436;28;20421;-71
2022/06/18 02:04:19;;;;;;;8.80;8.40;;;18.10;14.10;;;;;;4973113;28;20555;-71
2022/06/18 02:06:46;;;;;;;9.13;8.53;;;18.00;14.50;;;;;;4973887;28;20488;-71
2022/06/18 02:09:28;;;;;;;9.47;8.97;;;17.90;14.90;;;;;;4973983;28;20491;-71
2022/06/18 02:12:00;;;;;;;9.17;8.57;;;17.90;15.10;;;;;;4974508;28;20420;-71
2022/06/18 02:14:26;;;;;;;9.23;8.83;;;17.80;14.80;;;;;;4975567;28;20416;-71
2022/06/18 02:16:54;;;;;;;8.70;8.30;;;17.90;14.60;;;;;;4973544;28;20893;-72
2022/06/18 02:19:20;;;;;;;9.03;8.53;;;17.90;14.40;;;;;;4973296;28;20421;-71
2022/06/18 02:21:50;;;;;;;9.80;9.30;;;17.90;14.40;;;;;;4976272;28;20432;-71
2022/06/18 02:24:16;;;;;;;8.90;8.50;;;17.70;15.00;;;;;;4975447;28;20456;-71
2022/06/18 02:26:45;;;;;;;8.57;8.17;;;17.70;15.00;;;;;;4975475;28;20405;-71
2022/06/18 02:29:19;;;;;;;8.47;8.03;;;17.70;14.90;;;;;;4974635;28;20880;-72
2022/06/18 02:31:45;;;;;;;8.73;8.33;;;17.70;15.00;;;;;;4975341;28;20939;-71
2022/06/18 02:34:15;;;;;;;9.33;8.77;;;17.70;15.00;;;;;;4974081;28;20511;-71
2022/06/18 02:36:41;;;;;;;8.80;8.40;;;17.70;15.00;;;;;;4974904;28;20467;-71
2022/06/18 02:39:26;;;;;;;9.27;8.87;;;17.70;15.00;;;;;;4974633;28;20452;-71
2022/06/18 02:42:19;;;;;;;9.57;8.97;;;17.70;15.00;;;;;;4974625;28;20212;-71
2022/06/18 02:44:47;;;;;;;8.07;7.57;;;17.60;14.90;;;;;;4972256;28;20471;-71
2022/06/18 02:47:13;;;;;;;8.87;8.47;;;17.60;15.70;;;;;;4974310;28;20413;-70
2022/06/18 02:50:14;;;;;;;8.37;8.03;;;17.60;14.90;;;;;;4973568;28;20834;-70
2022/06/18 02:52:46;;;;;;;8.20;7.80;;;17.50;15.00;;;;;;4972521;28;20464;-71
2022/06/18 02:55:20;;;;;;;9.57;8.93;;;17.50;15.60;;;;;;4972581;28;21009;-71
2022/06/18 02:57:48;;;;;;;8.73;8.33;;;17.50;15.40;;;;;;4971711;28;20432;-71
2022/06/18 03:00:14;;;;;;;8.27;7.77;;;17.50;15.50;;;;;;4972122;28;20416;-72
2022/06/18 03:02:40;;;;;;;8.10;7.70;;;17.40;15.70;;;;;;4972548;28;20498;-71
2022/06/18 03:05:07;;;;;;;8.33;7.83;;;17.30;16.00;;;;;;4970980;28;20782;-71
2022/06/18 03:07:32;;;;;;;8.23;7.73;;;17.30;16.40;;;;;;4972307;28;20971;-70
2022/06/18 03:12:42;;;;;;;8.20;7.80;;;17.20;16.30;;;;;;4974981;28;20195;-71
2022/06/18 03:15:08;;;;;;;8.83;8.43;;;17.20;16.30;;;;;;4974715;28;20785;-71
2022/06/18 03:17:33;;;;;;;7.87;7.50;;;17.30;16.40;;;;;;4974508;28;20735;-71
2022/06/18 03:20:04;;;;;;;8.50;8.10;;;17.20;16.10;;;;;;4973030;28;20432;-68
2022/06/18 03:22:29;;;;;;;8.50;8.10;;;17.30;16.20;;;;;;4973247;28;20252;-68
2022/06/18 03:24:55;;;;;;;8.53;8.13;;;17.30;16.20;;;;;;4973360;28;20431;-69
2022/06/18 03:27:20;;;;;;;8.73;8.13;;;17.30;16.30;;;;;;4973685;28;20467;-69
2022/06/18 03:29:46;;;;;;;7.30;7.00;;;17.20;16.40;;;;;;4974295;28;20652;-69
2022/06/18 03:32:13;;;;;;;8.10;7.60;;;17.20;16.40;;;;;;4975048;28;20529;-69
2022/06/18 03:34:38;;;;;;;8.40;8.00;;;17.10;17.20;;;;;;4974404;28;20409;-69
2022/06/18 03:37:04;;;;;;;7.83;7.43;;;17.30;16.20;;;;;;4974371;28;20413;-69
2022/06/18 03:39:30;;;;;;;8.07;7.57;;;17.20;16.30;;;;;;4974057;28;20223;-68
2022/06/18 03:41:56;;;;;;;7.90;7.50;;;17.30;16.30;;;;;;4973321;28;20197;-69
2022/06/18 03:44:23;;;;;;;8.63;8.13;;;17.30;16.70;;;;;;4973530;28;20971;-70
2022/06/18 03:46:49;;;;;;;8.00;7.40;;;17.30;17.10;;;;;;4974559;28;20181;-70
2022/06/18 03:49:24;;;;;;;8.30;7.80;;;17.30;18.00;;;;;;4973876;28;20468;-71
2022/06/18 03:51:50;;;;;;;7.67;7.17;;;17.40;19.20;;;;;;4973594;28;20181;-70
2022/06/18 03:54:15;;;;;;;7.23;6.80;;;17.30;19.10;;;;;;4973081;28;20809;-71
2022/06/18 03:56:41;;;;;;;7.17;6.57;;;17.30;19.50;;;;;;4971721;28;20181;-70
2022/06/18 03:59:06;;;;;;;7.27;6.83;;;17.40;19.10;;;;;;4970466;28;20677;-71
2022/06/18 04:01:33;;;;;;;8.43;7.80;;;17.40;19.10;;;;;;4971419;28;20180;-70
2022/06/18 04:03:59;;;;;;;5.90;5.50;;;17.10;19.30;;;;;;4971311;28;20602;-71
2022/06/18 04:06:27;;;;;;;6.77;6.27;;;17.10;20.00;;;;;;4971563;28;20408;-71
2022/06/18 04:08:52;;;;;;;6.27;5.87;;;17.10;19.90;;;;;;4971175;28;20562;-71
2022/06/18 04:11:18;;;;;;;7.63;6.30;;;17.10;20.10;;;;;;4972774;28;20408;-71
2022/06/18 04:13:43;;;;;;;8.10;7.50;;;17.40;19.60;;;;;;4970728;28;20181;-71
2022/06/18 04:16:10;;;;;;;8.47;7.97;;;17.60;19.30;;;;;;4972550;28;20235;-71
2022/06/18 04:18:36;;;;;;;8.37;7.80;;;17.60;19.10;;;;;;4972420;28;20656;-71
2022/06/18 04:21:03;;;;;;;7.93;7.33;;;17.60;18.90;;;;;;4972417;28;20421;-71
2022/06/18 04:23:29;;;;;;;8.80;8.23;;;17.80;19.00;;;;;;4973473;28;20463;-71
2022/06/18 04:25:54;;;;;;;7.73;7.13;;;18.10;18.50;;;;;;4973999;28;20463;-71
2022/06/18 04:28:20;;;;;;;7.83;7.23;;;18.40;18.00;;;;;;4972288;28;20437;-71
2022/06/18 04:30:46;;;;;;;8.37;7.87;;;18.30;18.40;;;;;;4975123;28;20227;-71
2022/06/18 04:33:12;;;;;;;8.03;7.63;;;18.20;18.70;;;;;;4973057;28;20260;-71
2022/06/18 04:35:38;;;;;;;9.10;8.60;;;18.40;18.00;;;;;;4973872;28;20497;-70
2022/06/18 04:38:04;;;;;;;10.40;9.50;;;18.50;17.70;;;;;;4973661;28;20464;-71
2022/06/18 04:40:32;;;;;;;8.97;8.50;;;18.60;17.20;;;;;;4975010;28;20299;-71
2022/06/18 04:42:59;;;;;;;8.77;8.17;;;18.70;17.30;;;;;;4974616;28;20463;-71
2022/06/18 04:45:25;;;;;;;9.23;8.73;;;18.50;17.50;;;;;;4974547;28;20424;-71
2022/06/18 04:47:50;;;;;;;8.30;7.87;;;18.40;17.70;;;;;;4977217;28;20432;-73
2022/06/18 04:50:24;;;;;;;10.20;9.53;;;18.40;17.90;;;;;;4973578;28;20183;-68
2022/06/18 04:52:50;;;;;;;8.27;7.63;;;18.30;18.10;;;;;;4973940;28;20247;-68
2022/06/18 04:55:16;;;;;;;10.77;9.87;;;19.10;18.20;;;;;;4972085;28;20858;-68
2022/06/18 04:57:41;;;;;;;11.50;10.80;;;20.30;16.80;;;;;;4973022;28;20197;-68
2022/06/18 05:00:09;;;;;;;13.07;12.27;;;21.40;14.20;;;;;;4971638;28;20508;-68
2022/06/18 05:02:35;;;;;;;12.90;12.30;;;22.10;12.40;;;;;;4972881;28;20204;-69
2022/06/18 05:05:03;;;;;;;13.40;12.80;;;23.30;10.90;;;;;;4973072;28;20413;-69
2022/06/18 05:07:29;;;;;;;14.20;13.50;;;24.00;8.60;;;;;;4972836;28;20482;-68
2022/06/18 05:09:54;;;;;;;13.37;12.87;;;24.70;8.10;;;;;;4972878;28;20904;-69
2022/06/18 05:12:20;;;;;;;15.80;15.10;;;25.70;7.10;;;;;;4973027;28;20177;-69
2022/06/18 05:14:45;;;;;;;15.70;15.00;;;26.50;4.90;;;;;;4971653;28;20173;-68
2022/06/18 05:17:18;;;;;;;15.70;15.00;;;27.10;5.10;;;;;;4972768;28;20181;-69
2022/06/18 05:19:44;;;;;;;15.47;14.77;;;27.80;3.10;;;;;;4973071;28;20184;-74
2022/06/18 05:22:10;;;;;;;15.37;14.73;;;28.10;3.30;;;;;;4972771;28;20546;-73
2022/06/18 05:24:36;;;;;;;15.13;14.53;;;28.30;2.90;;;;;;4971397;28;20492;-74
2022/06/18 05:27:03;;;;;;;16.10;15.20;;;29.00;1.80;;;;;;4972643;28;20829;-73
2022/06/18 05:29:29;;;;;;;15.00;14.30;;;29.20;1.00;;;;;;4971269;28;20550;-74
2022/06/18 05:31:54;;;;;;;15.37;14.40;;;29.00;1.00;;;;;;4972752;28;20416;-73
2022/06/18 05:34:20;;;;;;;15.80;15.10;;;28.90;1.00;;;;;;4972792;28;20493;-74
2022/06/18 05:36:45;;;;;;;15.90;14.97;;;29.20;1.00;;;;;;4972784;28;20174;-73
2022/06/18 05:39:19;;;;;;;15.23;14.63;;;29.40;1.00;;;;;;4972318;28;20295;-73
2022/06/18 05:41:45;;;;;;;15.67;14.97;;;30.20;1.00;;;;;;4971347;28;20185;-74
2022/06/18 05:44:10;;;;;;;15.60;14.90;;;30.90;1.00;;;;;;4972704;28;20468;-74
2022/06/18 05:46:36;;;;;;;16.67;15.40;;;31.60;1.00;;;;;;4971055;28;20421;-74
2022/06/18 05:49:02;;;;;;;15.60;14.90;;;31.60;1.00;;;;;;4971539;28;20193;-74
2022/06/18 05:51:28;;;;;;;15.70;14.93;;;32.10;1.00;;;;;;4982025;28;20208;-74
2022/06/18 05:53:53;;;;;;;14.93;14.23;;;32.80;1.00;;;;;;4990052;28;20938;-70
2022/06/18 05:56:19;;;;;;;16.77;15.23;;;33.40;1.00;;;;;;4991606;28;20648;-71
2022/06/18 05:58:45;;;;;;;15.83;15.03;;;33.90;1.00;;;;;;4991156;28;20208;-71
2022/06/18 06:01:10;;;;;;;15.27;14.60;;;34.30;1.00;;;;;;4991431;28;20588;-71
2022/06/18 06:03:36;;;;;;;15.23;14.53;;;34.70;1.00;;;;;;4978651;28;20289;-70
2022/06/18 06:06:02;;;;;;;14.80;14.20;;;35.10;1.00;;;;;;4991443;28;20573;-71
2022/06/18 06:08:28;;;;;;;15.50;14.70;;;35.00;1.00;;;;;;4986384;28;20688;-71
2022/06/18 06:13:37;;;;;;;16.27;15.37;;;36.10;1.00;;;;;;4991380;28;20720;-71
2022/06/18 06:16:03;;;;;;;15.03;14.43;;;36.40;1.00;;;;;;4991266;28;20652;-70
2022/06/18 06:18:30;;;;;;;15.10;14.50;;;36.60;1.00;;;;;;4990825;28;20226;-70
2022/06/18 06:20:59;;;;;;;15.60;14.93;;;36.80;1.00;;;;;;4989587;28;20435;-70
2022/06/18 06:23:25;;;;;;;15.10;14.40;;;36.90;1.00;;;;;;4990994;28;20864;-70
2022/06/18 06:25:50;;;;;;;15.17;14.57;;;37.50;1.00;;;;;;4989782;28;20428;-70
2022/06/18 06:28:19;;;;;;;15.50;14.70;;;37.70;1.00;;;;;;4990945;28;20360;-71
2022/06/18 06:30:45;;;;;;;15.90;15.20;;;37.30;1.00;;;;;;4978570;28;20182;-73
2022/06/18 06:33:10;;;;;;;15.20;14.60;;;34.60;1.00;;;;;;4990174;28;20796;-71
2022/06/18 06:35:36;;;;;;;14.93;14.33;;;35.30;1.00;;;;;;4981294;28;20184;-71
2022/06/18 06:38:03;;;;;;;15.60;14.83;;;34.60;1.00;;;;;;4971280;28;20209;-71
2022/06/18 06:40:32;;;;;;;15.77;14.90;;;34.20;1.00;;;;;;4970259;28;20842;-71
2022/06/18 06:42:58;;;;;;;15.43;14.83;;;35.00;1.00;;;;;;4970095;28;20514;-71
2022/06/18 06:45:27;;;;;;;14.80;14.20;;;35.00;1.00;;;;;;4970130;28;20409;-71
2022/06/18 06:47:54;;;;;;;15.47;14.80;;;35.50;1.00;;;;;;4980419;28;20881;-71
2022/06/18 06:50:21;;;;;;;15.70;14.80;;;35.70;1.00;;;;;;4990713;28;20440;-71
2022/06/18 06:52:49;;;;;;;19.07;17.67;;;36.30;1.00;;;;;;4989671;28;20420;-71
2022/06/18 06:58:21;;;;;;;15.60;14.90;;;36.10;1.00;;;;;;4990846;28;20426;-71
2022/06/18 07:00:50;;;;;;;15.00;14.40;;;33.50;1.00;;;;;;4990318;28;20416;-71
2022/06/18 07:03:18;;;;;;;15.50;14.90;;;32.30;1.00;;;;;;4991182;28;20463;-71
2022/06/18 07:05:45;;;;;;;15.97;15.37;;;30.90;1.00;;;;;;4990321;28;20416;-71
2022/06/18 07:08:11;;;;;;;15.60;15.00;;;30.60;1.00;;;;;;4991379;28;20432;-71
2022/06/18 07:10:37;;;;;;;15.60;15.00;;;31.20;1.00;;;;;;4987034;28;20420;-71
2022/06/18 07:13:04;;;;;;;15.60;15.00;;;32.00;1.00;;;;;;4968125;28;20439;-69
2022/06/18 07:15:30;;;;;;;14.30;13.70;;;32.20;1.00;;;;;;4967077;28;20429;-71
2022/06/18 07:17:56;;;;;;;15.23;14.63;;;31.60;1.00;;;;;;4967690;28;20849;-71
2022/06/18 07:20:22;;;;;;;14.70;14.00;;;31.10;1.00;;;;;;4965440;28;20188;-70
2022/06/18 07:22:48;;;;;;;15.20;14.60;;;30.90;1.00;;;;;;4970870;28;20478;-71
2022/06/18 07:25:15;;;;;;;15.07;14.37;;;31.90;1.00;;;;;;4976516;28;20436;-75
2022/06/18 07:27:41;;;;;;;15.90;15.10;;;31.00;1.00;;;;;;4967133;28;20296;-71
2022/06/18 07:30:08;;;;;;;15.50;14.30;;;31.80;1.00;;;;;;4968111;28;20424;-69
2022/06/18 07:32:36;;;;;;;15.40;14.80;;;32.70;1.00;;;;;;4972036;28;20856;-69
2022/06/18 07:35:02;;;;;;;15.27;14.67;;;33.60;1.00;;;;;;4967157;28;20424;-69
2022/06/18 07:37:29;;;;;;;14.30;13.77;;;34.40;1.00;;;;;;4967566;28;20463;-69
2022/06/18 07:39:54;;;;;;;15.00;14.30;;;34.80;1.00;;;;;;4966987;28;20427;-69
2022/06/18 07:42:21;;;;;;;15.20;14.60;;;34.10;1.00;;;;;;4983391;28;20511;-69
2022/06/18 07:44:47;;;;;;;15.57;14.87;;;34.70;1.00;;;;;;4986197;28;20200;-69
2022/06/18 07:47:16;;;;;;;15.93;15.23;;;35.60;1.00;;;;;;4984784;28;20428;-69
2022/06/18 07:49:44;;;;;;;15.23;14.57;;;36.10;1.00;;;;;;4985506;28;20428;-69
2022/06/18 07:52:12;;;;;;;16.47;15.77;;;36.80;1.00;;;;;;4985848;28;20956;-69
2022/06/18 07:54:38;;;;;;;16.30;15.60;;;37.60;1.00;;;;;;4988898;28;20428;-71
2022/06/18 07:57:04;;;;;;;15.97;15.37;;;38.50;1.00;;;;;;4989824;28;20407;-69
2022/06/18 07:59:29;;;;;;;16.27;15.67;;;39.20;1.00;;;;;;4989183;28;20965;-69
2022/06/18 08:01:55;;;;;;;17.10;16.30;;;39.70;1.00;;;;;;4988483;28;20184;-69
2022/06/18 08:04:21;;;;;;;16.67;15.83;;;38.70;1.00;;;;;;4989575;28;20208;-69
2022/06/18 08:06:47;;;;;;;16.73;15.30;;;37.10;1.00;;;;;;4987639;28;20169;-69
2022/06/18 08:09:12;;;;;;;16.10;15.50;;;37.70;1.00;;;;;;4970060;28;20984;-69
2022/06/18 08:11:38;;;;;;;15.87;15.07;;;38.60;1.00;;;;;;4969846;28;20220;-70
2022/06/18 08:14:04;;;;;;;16.13;15.33;;;38.40;1.00;;;;;;4970116;28;20712;-70
2022/06/18 08:16:30;;;;;;;16.57;15.77;;;38.70;1.00;;;;;;4970214;28;20503;-69
2022/06/18 08:18:55;;;;;;;16.77;15.97;;;39.00;1.00;;;;;;4969818;28;20223;-69
2022/06/18 08:21:26;;;;;;;15.37;14.77;;;38.00;1.00;;;;;;4969174;28;20289;-69
2022/06/18 08:23:56;;;;;;;15.73;15.10;;;37.50;1.00;;;;;;4989414;28;20200;-69
2022/06/18 08:26:24;;;;;;;16.43;15.83;;;37.20;1.00;;;;;;4989532;28;20404;-69
2022/06/18 08:28:50;;;;;;;16.30;15.70;;;36.80;1.00;;;;;;4989194;28;20469;-69
2022/06/18 08:31:16;;;;;;;15.47;14.87;;;34.10;1.00;;;;;;4989476;28;20446;-69
2022/06/18 08:33:41;;;;;;;17.17;16.17;;;34.60;1.00;;;;;;4989430;28;20620;-69
2022/06/18 08:36:14;;;;;;;16.20;15.60;;;33.60;1.00;;;;;;4988863;28;20177;-69
2022/06/18 08:38:43;;;;;;;16.83;16.13;;;34.50;1.00;;;;;;4970064;28;20216;-69
2022/06/18 08:41:17;;;;;;;15.70;15.10;;;35.00;1.00;;;;;;4969960;28;20551;-70
2022/06/18 08:44:14;;;;;;;16.20;15.60;;;35.20;1.00;;;;;;4969947;28;20464;-73
2022/06/18 08:47:14;;;;;;;16.70;16.00;;;35.70;1.00;;;;;;4970182;28;20773;-69
2022/06/18 08:50:22;;;;;;;16.63;16.03;;;35.40;1.00;;;;;;4971967;28;20512;-69
2022/06/18 08:53:05;;;;;;;17.20;16.33;;;36.00;1.00;;;;;;4985076;28;20427;-69
2022/06/18 08:55:34;;;;;;;16.30;15.60;;;35.70;1.00;;;;;;4989140;28;20415;-68
2022/06/18 08:58:12;;;;;;;15.80;15.20;;;35.40;1.00;;;;;;4988935;28;20459;-69
2022/06/18 09:01:05;;;;;;;16.07;15.37;;;35.30;1.00;;;;;;4988150;28;20424;-68
2022/06/18 09:03:37;;;;;;;17.43;16.50;;;34.90;1.00;;;;;;4987795;28;20520;-68
2022/06/18 09:06:51;;;;;;;16.90;16.10;;;34.70;1.00;;;;;;4984775;28;20421;-68
2022/06/18 09:09:50;;;;;;;17.00;16.20;;;32.80;1.00;;;;;;4979891;28;20436;-67
2022/06/18 09:12:24;;;;;;;15.93;15.33;;;32.60;1.00;;;;;;4969616;28;20500;-68
2022/06/18 09:15:14;;;;;;;16.33;15.73;;;32.30;1.00;;;;;;4969748;28;20424;-68
2022/06/18 09:17:51;;;;;;;16.57;15.67;;;31.50;1.00;;;;;;4969349;28;20448;-68
2022/06/18 09:20:25;;;;;;;16.30;15.60;;;31.50;1.00;;;;;;4969169;28;20447;-68
2022/06/18 09:22:57;;;;;;;16.30;15.60;;;31.70;1.00;;;;;;4969275;28;20881;-68
2022/06/18 09:25:28;;;;;;;16.00;15.30;;;30.80;1.00;;;;;;4972712;28;20416;-68
2022/06/18 09:27:58;;;;;;;15.60;14.90;;;30.30;1.00;;;;;;4972447;28;20913;-68
2022/06/18 09:30:44;;;;;;;15.77;15.07;;;30.40;1.00;;;;;;4971456;28;20413;-68
2022/06/18 09:33:22;;;;;;;16.00;15.10;;;30.20;1.00;;;;;;4972598;28;20425;-68
2022/06/18 09:36:01;;;;;;;15.23;14.63;;;30.10;1.00;;;;;;4978426;28;20511;-70
2022/06/18 09:38:36;;;;;;;15.87;15.17;;;30.40;1.00;;;;;;4991701;28;20777;-70
2022/06/18 09:41:11;;;;;;;16.00;15.27;;;30.70;1.00;;;;;;4985670;28;20461;-70
2022/06/18 09:43:57;;;;;;;16.00;15.30;;;30.70;1.00;;;;;;4979595;28;20501;-70
2022/06/18 09:46:25;;;;;;;15.60;15.00;;;30.90;1.00;;;;;;4991595;28;20456;-70
2022/06/18 09:48:52;;;;;;;15.17;14.57;;;30.50;1.00;;;;;;4991023;28;20523;-70
2022/06/18 09:51:31;;;;;;;15.70;15.00;;;30.80;1.00;;;;;;4990966;28;20538;-70
2022/06/18 09:54:04;;;;;;;16.53;15.73;;;31.10;1.00;;;;;;4991529;28;20423;-70
2022/06/18 09:56:37;;;;;;;15.90;15.20;;;30.80;1.00;;;;;;4991480;28;20415;-70
2022/06/18 09:59:17;;;;;;;15.60;14.90;;;30.60;1.00;;;;;;4991225;28;20529;-70
2022/06/18 10:01:46;;;;;;;15.20;14.53;;;30.60;1.00;;;;;;4991697;28;20534;-70
2022/06/18 10:07:02;;;;;;;15.70;15.10;;;30.80;1.00;;;;;;4982171;28;20482;-70
2022/06/18 10:09:45;;;;;;;15.27;14.67;;;31.00;1.00;;;;;;4990283;28;20510;-70
2022/06/18 10:12:26;;;;;;;15.87;15.17;;;31.10;1.00;;;;;;4991152;28;20914;-70
2022/06/18 10:14:58;;;;;;;16.33;15.23;;;31.30;1.00;;;;;;4991349;28;20451;-70
2022/06/18 10:17:45;;;;;;;16.50;15.87;;;31.40;1.00;;;;;;4975621;28;20449;-70
2022/06/18 10:20:45;;;;;;;16.93;16.07;;;31.10;1.00;;;;;;4979301;28;20478;-69
2022/06/18 10:23:43;;;;;;;16.20;15.50;;;30.90;1.00;;;;;;4991162;28;20468;-70
2022/06/18 10:26:19;;;;;;;16.63;15.93;;;31.10;1.00;;;;;;4990763;28;20951;-69
2022/06/18 10:29:08;;;;;;;16.27;15.57;;;31.20;1.00;;;;;;4990909;28;20427;-69
2022/06/18 10:31:58;;;;;;;16.40;15.70;;;31.30;1.00;;;;;;4991078;28;20416;-69
2022/06/18 10:34:49;;;;;;;15.67;15.07;;;31.10;1.00;;;;;;4987044;28;20787;-69
2022/06/18 10:37:53;;;;;;;16.17;15.57;;;30.70;1.00;;;;;;4971535;28;20468;-69
2022/06/18 10:40:42;;;;;;;15.60;14.90;;;30.40;1.00;;;;;;4971413;28;20908;-69
2022/06/18 10:43:26;;;;;;;16.43;15.73;;;30.60;1.00;;;;;;4971559;28;20468;-69
2022/06/18 10:46:06;;;;;;;16.23;15.63;;;30.80;1.00;;;;;;4971913;28;20452;-70
2022/06/18 10:48:32;;;;;;;15.20;14.60;;;31.20;1.00;;;;;;4971812;28;20519;-70
2022/06/18 10:51:00;;;;;;;17.50;16.67;;;31.40;1.00;;;;;;4989129;28;20432;-70
2022/06/18 10:53:29;;;;;;;16.83;16.03;;;31.60;1.00;;;;;;4975713;28;20797;-70
2022/06/18 10:56:16;;;;;;;16.00;15.40;;;31.40;1.00;;;;;;4971609;28;20591;-69
2022/06/18 10:58:53;;;;;;;16.67;15.87;;;31.40;1.00;;;;;;4971200;28;20545;-71
2022/06/18 11:01:25;;;;;;;15.80;14.97;;;31.50;1.00;;;;;;4971282;28;20505;-71
2022/06/18 11:03:56;;;;;;;16.20;15.50;;;31.70;1.00;;;;;;4974219;28;20609;-71
2022/06/18 11:06:22;;;;;;;15.73;15.13;;;31.70;1.00;;;;;;4991054;28;20444;-71
2022/06/18 11:08:55;;;;;;;15.67;15.00;;;31.80;1.00;;;;;;4990482;28;20938;-72
2022/06/18 11:11:26;;;;;;;17.10;16.00;;;32.00;1.00;;;;;;4990701;28;20404;-72
2022/06/18 11:13:51;;;;;;;15.83;15.13;;;32.10;1.00;;;;;;4990760;28;20419;-70
2022/06/18 11:16:28;;;;;;;15.90;15.10;;;32.20;1.00;;;;;;4990796;28;20960;-71
2022/06/18 11:19:03;;;;;;;15.43;14.73;;;32.20;1.00;;;;;;4984900;28;20220;-69
2022/06/18 11:21:28;;;;;;;15.50;14.70;;;32.00;1.00;;;;;;4971580;28;20408;-70
2022/06/18 11:24:03;;;;;;;15.23;14.53;;;31.90;1.00;;;;;;4970922;28;20877;-69
2022/06/18 11:26:29;;;;;;;16.03;15.10;;;32.20;1.00;;;;;;4969746;28;20214;-70
2022/06/18 11:29:04;;;;;;;15.93;15.23;;;32.40;1.00;;;;;;4970570;28;20428;-70
2022/06/18 11:31:34;;;;;;;16.57;15.83;;;32.70;1.00;;;;;;4971009;28;20416;-73
2022/06/18 11:34:03;;;;;;;15.37;14.67;;;32.70;1.00;;;;;;4979007;28;20440;-70
2022/06/18 11:36:45;;;;;;;14.87;14.27;;;32.90;1.00;;;;;;4989977;28;20435;-71
2022/06/18 11:39:31;;;;;;;15.93;15.03;;;33.10;1.00;;;;;;4989756;28;20451;-71
2022/06/18 11:42:18;;;;;;;15.80;14.73;;;33.30;1.00;;;;;;4990763;28;20921;-71
2022/06/18 11:44:53;;;;;;;15.60;14.80;;;33.40;1.00;;;;;;4988837;28;20901;-71
2022/06/18 11:47:29;;;;;;;16.20;15.43;;;33.50;1.00;;;;;;4990737;28;20535;-70
2022/06/18 11:50:02;;;;;;;16.13;15.23;;;33.50;1.00;;;;;;4972357;28;20530;-70
2022/06/18 11:52:49;;;;;;;16.47;15.77;;;33.50;1.00;;;;;;4971261;28;20413;-71
2022/06/18 11:55:29;;;;;;;17.43;16.00;;;33.60;1.00;;;;;;4969382;28;20435;-70
2022/06/18 11:58:20;;;;;;;16.20;15.40;;;33.40;1.00;;;;;;4969120;28;21022;-71
2022/06/18 12:01:11;;;;;;;14.67;14.07;;;33.50;1.00;;;;;;4971161;28;20428;-71
2022/06/18 12:03:46;;;;;;;16.50;15.10;;;33.50;1.00;;;;;;4978922;28;20467;-71
2022/06/18 12:06:53;;;;;;;16.07;14.80;;;33.70;1.00;;;;;;4989952;28;20415;-71
2022/06/18 12:09:19;;;;;;;16.17;15.37;;;33.80;1.00;;;;;;4929608;29;20454;-69
2022/06/18 12:12:28;;;;;;;15.70;14.90;;;34.00;1.00;;;;;;4929885;29;20423;-73
2022/06/18 12:14:59;;;;;;;15.47;14.73;;;34.20;1.00;;;;;;4976614;28;20428;-71
2022/06/18 12:17:53;;;;;;;16.80;15.80;;;34.30;1.00;;;;;;4988256;28;20447;-70
2022/06/18 12:20:18;;;;;;;17.10;15.70;;;34.40;1.00;;;;;;4970684;28;20945;-70
2022/06/18 12:23:22;;;;;;;16.77;15.97;;;34.60;1.00;;;;;;4970374;28;20417;-70
2022/06/18 12:26:08;;;;;;;16.23;15.43;;;34.60;1.00;;;;;;4971306;28;20181;-71
2022/06/18 12:28:50;;;;;;;16.53;15.30;;;34.70;1.00;;;;;;4980906;28;20506;-71
2022/06/18 12:31:32;;;;;;;18.13;16.57;;;34.70;1.00;;;;;;4970245;28;20971;-71
2022/06/18 12:34:04;;;;;;;16.20;15.10;;;34.70;1.00;;;;;;4989129;28;20411;-71
2022/06/18 12:36:45;;;;;;;18.87;16.27;;;34.60;1.00;;;;;;4989491;28;20512;-71
2022/06/18 12:39:40;;;;;;;17.07;15.80;;;34.70;1.00;;;;;;4988827;28;20459;-71
2022/06/18 12:42:30;;;;;;;17.47;16.07;;;34.60;1.00;;;;;;4989545;28;20465;-71
2022/06/18 12:45:06;;;;;;;16.20;15.20;;;34.70;1.00;;;;;;4980050;28;20547;-72
2022/06/18 12:48:03;;;;;;;18.37;17.13;;;34.70;1.00;;;;;;4969736;28;20807;-69
2022/06/18 12:51:07;;;;;;;15.70;14.83;;;34.80;1.00;;;;;;4970045;28;20417;-69
2022/06/18 12:53:51;;;;;;;15.67;14.57;;;34.80;1.00;;;;;;4937786;28;20527;-69
2022/06/18 12:56:48;;;;;;;15.43;14.70;;;34.70;1.00;;;;;;4965620;28;20424;-69
2022/06/18 12:59:41;;;;;;;17.00;15.80;;;34.60;1.00;;;;;;4969172;28;20444;-69
2022/06/18 13:02:24;;;;;;;17.20;15.83;;;34.50;1.00;;;;;;4968644;28;20420;-69
2022/06/18 13:05:09;;;;;;;16.83;15.27;;;34.40;1.00;;;;;;4969078;28;20460;-69
2022/06/18 13:07:59;;;;;;;17.43;15.73;;;34.30;1.00;;;;;;4969377;28;20950;-69
2022/06/18 13:10:40;;;;;;;16.17;15.23;;;34.30;1.00;;;;;;4968673;28;20409;-69
2022/06/18 13:13:26;;;;;;;17.37;15.93;;;34.20;1.00;;;;;;4968955;28;20424;-69
2022/06/18 13:16:07;;;;;;;16.80;15.70;;;34.20;1.00;;;;;;4984830;28;20424;-68
2022/06/18 13:18:55;;;;;;;15.20;14.40;;;34.20;1.00;;;;;;4988388;28;20463;-68
2022/06/18 13:21:21;;;;;;;16.83;15.60;;;34.20;1.00;;;;;;4987919;28;20428;-69
2022/06/18 13:29:58;;;;;;;15.90;14.90;;;34.20;1.00;;;;;;4987801;28;20831;-68